Startpagina
METAR-TAF:

METAR-TAF

Vliegvelden :

Aeropuerto Internacional de Maiquetía Simón Bolívar

Caracas, Venezuela

breedte: 10-36N, lengte: 066-59W, hoogte: 43 m

Actueel weer

Dit bericht is 45 minuten geleden gemaakt, om 02:00 UTC
Wind 3 kt uit het oosten
Temperatuur 28°C
Vochtigheid 74%
Druk 1015 hPa
Zicht 10 km of meer
Gebroken wolken op 1600 ft

METAR: SVMI 210200Z 09003KT 9999 BKN016 28/23 Q1015

Tijdstip: 22:45 (02:45 UTC)

Verwachting

Dit bericht is 4 uur en het 45 minuten geleden gemaakt, om 22:00 UTC
Verwachting geldig van 21 om 00 UTC tot 22 om 00 UTC
Wind 11 kt uit het oosten
Zicht 10 km of meer
Verspreide wolken op 1600 ft
Wijzigt naar
van 21 om 02 UTC tot 21 om 06 UTC
Wind 2 kt uit het oosten
Weinig wolken op 1300 ft
Verspreide wolken op 2000 ft

TAF: SVMI 202200Z 2100/2200 09011KT 9999 SCT016 TX30/19Z TN24/09Z BECMG 2102/2106 09002KT FEW013 SCT020

Waarnemingen en weersverwachtingen van meer dan 4000 vliegvelden (METAR en TAF).

De beschikbare stations zijn de gele en rode punten op de kaart.

Ga met uw muis naar het station om de naam te zien.

Klik dan om waarnemingen en weersverwachtingen te zien.

kaart wijzigen: klik op de groene knoppen met een zwart kruis om in te zoomen, op de groene knop met een streepje om uit te zoomen of op de groene pijlen voor aangrenzende kaarten.


METAR-TAF: